Time;durP1;ratioP1;P1;durP2;ratioP2;P2;SDS_P1;SDS_P2;PMS_P1;PMS_P2;Temp;Humidity;BMP_temperature;BMP_pressure;BME280_temperature;BME280_humidity;BME280_pressure;Samples;Min_cycle;Max_cycle;Signal;HPM_P1;HPM_P2
2021/09/25 00:01:20;;;;;;;19.75;10.20;;;;;;;;;;5031902;28;20062;-58
2021/09/25 00:03:46;;;;;;;21.15;10.85;;;;;;;;;;5013846;28;20030;-59
2021/09/25 00:06:12;;;;;;;22.13;10.30;;;;;;;;;;5031547;28;20477;-59
2021/09/25 00:08:38;;;;;;;18.70;9.57;;;;;;;;;;5031351;28;20040;-60
2021/09/25 00:11:04;;;;;;;20.08;9.98;;;;;;;;;;5031447;28;20029;-60
2021/09/25 00:13:31;;;;;;;20.60;9.73;;;;;;;;;;5013528;28;20041;-57
2021/09/25 00:15:57;;;;;;;22.10;10.23;;;;;;;;;;5013551;28;20065;-60
2021/09/25 00:18:23;;;;;;;19.67;10.32;;;;;;;;;;5030843;28;20306;-60
2021/09/25 00:20:49;;;;;;;19.48;9.95;;;;;;;;;;5013668;28;20021;-58
2021/09/25 00:23:15;;;;;;;19.58;9.32;;;;;;;;;;5013615;28;20079;-60
2021/09/25 00:25:41;;;;;;;20.67;9.77;;;;;;;;;;5013470;28;20025;-60
2021/09/25 00:28:07;;;;;;;19.95;9.77;;;;;;;;;;5030980;28;20083;-60
2021/09/25 00:30:33;;;;;;;20.50;9.60;;;;;;;;;;5031201;28;20033;-60
2021/09/25 00:32:59;;;;;;;19.00;9.48;;;;;;;;;;5031115;28;20032;-60
2021/09/25 00:35:25;;;;;;;20.80;9.60;;;;;;;;;;5013432;28;20021;-60
2021/09/25 00:37:52;;;;;;;19.50;10.27;;;;;;;;;;5030328;28;20413;-60
2021/09/25 00:40:18;;;;;;;22.17;9.38;;;;;;;;;;5030773;28;20101;-60
2021/09/25 00:42:44;;;;;;;19.33;9.80;;;;;;;;;;5013341;28;20031;-60
2021/09/25 00:45:11;;;;;;;18.95;10.00;;;;;;;;;;5013388;28;20022;-60
2021/09/25 00:47:37;;;;;;;20.98;10.13;;;;;;;;;;5030886;28;20026;-60
2021/09/25 00:50:04;;;;;;;22.13;10.65;;;;;;;;;;5030711;28;20462;-58
2021/09/25 00:52:30;;;;;;;21.70;10.27;;;;;;;;;;5031019;28;20029;-60
2021/09/25 00:54:56;;;;;;;22.90;10.68;;;;;;;;;;5013151;28;20373;-60
2021/09/25 00:57:22;;;;;;;20.98;9.35;;;;;;;;;;5013272;28;20037;-58
2021/09/25 00:59:48;;;;;;;18.98;9.30;;;;;;;;;;5012907;28;20021;-59
2021/09/25 01:02:17;;;;;;;19.35;9.70;;;;;;;;;;5013372;28;20029;-61
2021/09/25 01:04:47;;;;;;;20.20;9.65;;;;;;;;;;5030776;28;20026;-60
2021/09/25 01:07:13;;;;;;;21.10;9.48;;;;;;;;;;5031238;28;20021;-59
2021/09/25 01:09:39;;;;;;;21.60;9.80;;;;;;;;;;5030404;28;20083;-60
2021/09/25 01:12:06;;;;;;;19.85;9.43;;;;;;;;;;5012994;28;20470;-60
2021/09/25 01:14:32;;;;;;;19.52;9.93;;;;;;;;;;5013084;28;20033;-59
2021/09/25 01:17:05;;;;;;;20.65;8.43;;;;;;;;;;5030656;28;20026;-60
2021/09/25 01:19:31;;;;;;;20.33;9.90;;;;;;;;;;5030604;28;20202;-60
2021/09/25 01:21:57;;;;;;;20.27;9.20;;;;;;;;;;5030567;28;20030;-59
2021/09/25 01:24:23;;;;;;;22.40;11.38;;;;;;;;;;5030538;28;20025;-60
2021/09/25 01:26:49;;;;;;;21.42;10.70;;;;;;;;;;5030556;28;20034;-59
2021/09/25 01:29:15;;;;;;;21.13;11.02;;;;;;;;;;5012901;28;20040;-60
2021/09/25 01:31:41;;;;;;;23.95;10.80;;;;;;;;;;5030601;28;20443;-60
2021/09/25 01:34:07;;;;;;;21.15;10.30;;;;;;;;;;5030618;28;20100;-60
2021/09/25 01:36:33;;;;;;;27.23;10.73;;;;;;;;;;5012827;28;20048;-60
2021/09/25 01:38:59;;;;;;;20.17;9.88;;;;;;;;;;5030254;28;20057;-59
2021/09/25 01:41:25;;;;;;;20.75;9.57;;;;;;;;;;5030530;28;20028;-60
2021/09/25 01:43:52;;;;;;;23.45;9.65;;;;;;;;;;5012742;28;20484;-60
2021/09/25 01:46:19;;;;;;;21.27;9.98;;;;;;;;;;5012696;28;20041;-60
2021/09/25 01:48:45;;;;;;;21.60;9.50;;;;;;;;;;5030550;28;20083;-60
2021/09/25 01:51:12;;;;;;;21.15;10.10;;;;;;;;;;5016362;28;20036;-60
2021/09/25 01:53:38;;;;;;;20.73;10.27;;;;;;;;;;5033871;28;20053;-60
2021/09/25 01:56:09;;;;;;;23.77;10.68;;;;;;;;;;5016194;28;20401;-60
2021/09/25 01:58:35;;;;;;;21.02;9.13;;;;;;;;;;5033968;28;20452;-60
2021/09/25 02:01:01;;;;;;;19.95;9.98;;;;;;;;;;5016197;28;20464;-59
2021/09/25 02:03:27;;;;;;;21.38;10.68;;;;;;;;;;5033944;28;20040;-59
2021/09/25 02:05:53;;;;;;;20.80;11.48;;;;;;;;;;5033616;28;20115;-57
2021/09/25 02:08:19;;;;;;;21.88;10.60;;;;;;;;;;5033546;28;20037;-60
2021/09/25 02:10:45;;;;;;;23.42;11.18;;;;;;;;;;5033759;28;20030;-60
2021/09/25 02:13:11;;;;;;;22.17;10.30;;;;;;;;;;5033751;28;20069;-60
2021/09/25 02:15:37;;;;;;;21.88;10.10;;;;;;;;;;5033753;28;20032;-58
2021/09/25 02:18:03;;;;;;;21.73;10.15;;;;;;;;;;5033556;28;20366;-60
2021/09/25 02:20:29;;;;;;;21.13;10.20;;;;;;;;;;5033274;28;20490;-58
2021/09/25 02:22:55;;;;;;;20.58;10.10;;;;;;;;;;5033547;28;20100;-59
2021/09/25 02:25:21;;;;;;;20.75;9.93;;;;;;;;;;5033550;28;20105;-60
2021/09/25 02:27:51;;;;;;;19.98;9.63;;;;;;;;;;5033334;28;20341;-60
2021/09/25 02:30:17;;;;;;;20.58;9.65;;;;;;;;;;5033250;28;20024;-60
2021/09/25 02:32:44;;;;;;;21.20;10.38;;;;;;;;;;5033226;28;20018;-61
2021/09/25 02:35:11;;;;;;;19.98;10.20;;;;;;;;;;5015651;28;20022;-60
2021/09/25 02:37:37;;;;;;;21.25;9.90;;;;;;;;;;5033394;28;20039;-59
2021/09/25 02:40:03;;;;;;;21.10;10.02;;;;;;;;;;5032991;28;20397;-59
2021/09/25 02:42:29;;;;;;;23.20;10.15;;;;;;;;;;5033220;28;20057;-59
2021/09/25 02:44:55;;;;;;;20.92;10.50;;;;;;;;;;5015633;28;20060;-58
2021/09/25 02:47:21;;;;;;;20.75;10.45;;;;;;;;;;5015345;28;20474;-59
2021/09/25 02:49:47;;;;;;;19.95;8.95;;;;;;;;;;5032954;28;20034;-59
2021/09/25 02:52:13;;;;;;;20.63;10.30;;;;;;;;;;5033315;28;20029;-58
2021/09/25 02:54:39;;;;;;;19.73;9.55;;;;;;;;;;5032919;28;20421;-59
2021/09/25 02:57:05;;;;;;;20.88;9.35;;;;;;;;;;5032800;28;20037;-59
2021/09/25 02:59:31;;;;;;;22.15;9.85;;;;;;;;;;5014910;28;20022;-58
2021/09/25 03:01:57;;;;;;;22.75;10.48;;;;;;;;;;5032114;28;20026;-58
2021/09/25 03:04:23;;;;;;;20.98;9.00;;;;;;;;;;5032747;28;20032;-56
2021/09/25 03:06:49;;;;;;;22.88;10.20;;;;;;;;;;5032636;28;20026;-56
2021/09/25 03:09:15;;;;;;;22.88;10.90;;;;;;;;;;5015126;28;20025;-58
2021/09/25 03:11:41;;;;;;;21.08;9.85;;;;;;;;;;5033507;28;20026;-60
2021/09/25 03:14:07;;;;;;;22.20;9.90;;;;;;;;;;5014971;28;20122;-59
2021/09/25 03:16:33;;;;;;;23.45;11.77;;;;;;;;;;5032417;28;20057;-58
2021/09/25 03:18:59;;;;;;;21.08;10.32;;;;;;;;;;5032219;28;20101;-58
2021/09/25 03:21:25;;;;;;;22.17;10.80;;;;;;;;;;5032665;28;20028;-58
2021/09/25 03:23:51;;;;;;;21.75;11.52;;;;;;;;;;5032069;28;20025;-55
2021/09/25 03:26:17;;;;;;;23.58;11.45;;;;;;;;;;5032129;28;20478;-59
2021/09/25 03:28:43;;;;;;;20.75;9.98;;;;;;;;;;5032326;28;20056;-58
2021/09/25 03:31:09;;;;;;;22.98;10.80;;;;;;;;;;5032808;28;20473;-58
2021/09/25 03:33:35;;;;;;;20.70;9.95;;;;;;;;;;5014900;28;20025;-59
2021/09/25 03:36:01;;;;;;;24.08;10.73;;;;;;;;;;5032807;28;20033;-57
2021/09/25 03:38:29;;;;;;;20.77;11.40;;;;;;;;;;5032309;28;20029;-60
2021/09/25 03:40:55;;;;;;;22.80;9.80;;;;;;;;;;5032332;28;20025;-59
2021/09/25 03:43:21;;;;;;;21.35;9.35;;;;;;;;;;5032457;28;20343;-60
2021/09/25 03:45:47;;;;;;;23.70;10.55;;;;;;;;;;5032112;28;20081;-60
2021/09/25 03:48:14;;;;;;;22.15;10.55;;;;;;;;;;5032147;28;20370;-55
2021/09/25 03:50:40;;;;;;;20.48;9.30;;;;;;;;;;5014796;28;20025;-59
2021/09/25 03:53:06;;;;;;;21.80;10.43;;;;;;;;;;5014867;28;20091;-59
2021/09/25 03:55:32;;;;;;;24.25;11.52;;;;;;;;;;5032529;28;20466;-59
2021/09/25 03:57:58;;;;;;;24.17;10.80;;;;;;;;;;5032798;28;20038;-60
2021/09/25 04:00:24;;;;;;;21.30;10.52;;;;;;;;;;5032531;28;20037;-60
2021/09/25 04:02:51;;;;;;;23.83;11.10;;;;;;;;;;5032434;28;20049;-60
2021/09/25 04:05:21;;;;;;;19.92;10.38;;;;;;;;;;5031671;28;20053;-60
2021/09/25 04:07:47;;;;;;;21.75;10.25;;;;;;;;;;5013673;28;20025;-60
2021/09/25 04:10:14;;;;;;;22.58;11.05;;;;;;;;;;5031435;28;20025;-60
2021/09/25 04:12:40;;;;;;;19.20;10.00;;;;;;;;;;5031536;28;20029;-60
2021/09/25 04:15:07;;;;;;;22.42;10.73;;;;;;;;;;5013816;28;20389;-60
2021/09/25 04:17:33;;;;;;;22.67;10.57;;;;;;;;;;5031163;28;20389;-60
2021/09/25 04:19:59;;;;;;;22.63;11.10;;;;;;;;;;5013134;28;20026;-60
2021/09/25 04:22:25;;;;;;;21.50;10.65;;;;;;;;;;5032303;28;20093;-60
2021/09/25 04:24:51;;;;;;;21.88;11.35;;;;;;;;;;5032585;28;20027;-60
2021/09/25 04:27:17;;;;;;;22.17;10.00;;;;;;;;;;5050868;28;20515;-60
2021/09/25 04:29:43;;;;;;;21.20;11.40;;;;;;;;;;5050878;28;20064;-60
2021/09/25 04:32:09;;;;;;;21.58;10.27;;;;;;;;;;5050939;28;20055;-59
2021/09/25 04:34:35;;;;;;;22.00;10.98;;;;;;;;;;5033085;28;20025;-60
2021/09/25 04:37:01;;;;;;;27.33;10.40;;;;;;;;;;5050898;28;20429;-60
2021/09/25 04:39:27;;;;;;;22.45;10.10;;;;;;;;;;5050709;28;20127;-59
2021/09/25 04:41:53;;;;;;;23.38;12.38;;;;;;;;;;5032992;28;20068;-58
2021/09/25 04:44:19;;;;;;;22.52;11.18;;;;;;;;;;5033040;28;20025;-60
2021/09/25 04:46:46;;;;;;;25.02;12.38;;;;;;;;;;5032924;28;20445;-58
2021/09/25 04:49:12;;;;;;;25.13;11.80;;;;;;;;;;5050536;28;20053;-61
2021/09/25 04:51:38;;;;;;;23.38;12.43;;;;;;;;;;5050613;28;20025;-60
2021/09/25 04:54:04;;;;;;;21.75;10.40;;;;;;;;;;5050765;28;20388;-60
2021/09/25 04:58:57;;;;;;;22.20;11.68;;;;;;;;;;5067390;22;20049;-57
2021/09/25 05:01:23;;;;;;;22.98;10.20;;;;;;;;;;5051691;28;20492;-57
2021/09/25 05:03:49;;;;;;;22.88;10.82;;;;;;;;;;5051806;28;20025;-55
2021/09/25 05:06:16;;;;;;;24.88;10.50;;;;;;;;;;5051656;28;20036;-56
2021/09/25 05:08:41;;;;;;;22.70;10.85;;;;;;;;;;5033680;28;20050;-56
2021/09/25 05:11:07;;;;;;;22.50;9.57;;;;;;;;;;5031960;28;20485;-56
2021/09/25 05:13:34;;;;;;;25.15;11.38;;;;;;;;;;5014064;28;20043;-55
2021/09/25 05:16:00;;;;;;;23.95;11.60;;;;;;;;;;5031867;28;20048;-54
2021/09/25 05:18:26;;;;;;;23.98;10.68;;;;;;;;;;5013702;28;20040;-57
2021/09/25 05:20:52;;;;;;;21.48;11.10;;;;;;;;;;5031707;28;20033;-55
2021/09/25 05:23:19;;;;;;;25.25;11.63;;;;;;;;;;5031735;28;20078;-57
2021/09/25 05:25:45;;;;;;;24.25;11.65;;;;;;;;;;5017752;28;20059;-55
2021/09/25 05:28:11;;;;;;;20.48;10.60;;;;;;;;;;5035731;28;20439;-57
2021/09/25 05:30:38;;;;;;;22.52;11.30;;;;;;;;;;5018004;28;20026;-55
2021/09/25 05:33:04;;;;;;;22.80;10.88;;;;;;;;;;5035672;28;20057;-57
2021/09/25 05:35:30;;;;;;;22.42;10.20;;;;;;;;;;5017746;28;20018;-56
2021/09/25 05:37:56;;;;;;;22.35;10.20;;;;;;;;;;5030667;28;20025;-57
2021/09/25 05:40:22;;;;;;;22.00;10.10;;;;;;;;;;5054565;28;20480;-54
2021/09/25 05:42:48;;;;;;;23.08;11.10;;;;;;;;;;5054708;28;20029;-57
2021/09/25 05:45:16;;;;;;;22.33;11.23;;;;;;;;;;5036840;28;20013;-56
2021/09/25 05:47:42;;;;;;;22.45;10.32;;;;;;;;;;5054485;28;20024;-57
2021/09/25 05:50:08;;;;;;;23.88;10.38;;;;;;;;;;5054264;28;20096;-56
2021/09/25 05:52:34;;;;;;;21.83;10.32;;;;;;;;;;5037062;28;20385;-57
2021/09/25 05:55:00;;;;;;;21.27;10.10;;;;;;;;;;5054759;28;20031;-57
2021/09/25 05:57:26;;;;;;;21.00;10.30;;;;;;;;;;5037040;28;20055;-56
2021/09/25 05:59:52;;;;;;;24.00;10.73;;;;;;;;;;5037272;28;20480;-56
2021/09/25 06:02:18;;;;;;;21.92;11.63;;;;;;;;;;5037116;28;20048;-57
2021/09/25 06:04:44;;;;;;;23.05;10.48;;;;;;;;;;5036906;28;20460;-58
2021/09/25 06:07:11;;;;;;;20.92;9.82;;;;;;;;;;5054742;28;20028;-57
2021/09/25 06:09:38;;;;;;;22.17;10.55;;;;;;;;;;5054339;28;20029;-57
2021/09/25 06:12:04;;;;;;;21.20;10.02;;;;;;;;;;5054755;28;20025;-57
2021/09/25 06:14:31;;;;;;;23.23;10.73;;;;;;;;;;5054559;28;20033;-56
2021/09/25 06:16:57;;;;;;;22.23;9.98;;;;;;;;;;5054580;28;20032;-57
2021/09/25 06:19:23;;;;;;;23.33;10.73;;;;;;;;;;5054361;28;20029;-58
2021/09/25 06:21:49;;;;;;;25.38;10.75;;;;;;;;;;5054492;28;20025;-57
2021/09/25 06:24:15;;;;;;;22.55;9.75;;;;;;;;;;5037103;28;20097;-57
2021/09/25 06:26:41;;;;;;;23.33;10.38;;;;;;;;;;5017040;28;20175;-57
2021/09/25 06:29:07;;;;;;;22.90;10.90;;;;;;;;;;5016661;28;20041;-58
2021/09/25 06:31:34;;;;;;;21.83;9.80;;;;;;;;;;5034469;28;20029;-56
2021/09/25 06:34:01;;;;;;;22.63;10.45;;;;;;;;;;5034510;28;20022;-55
2021/09/25 06:36:27;;;;;;;22.35;10.07;;;;;;;;;;5015580;28;20022;-56
2021/09/25 06:38:53;;;;;;;22.23;10.73;;;;;;;;;;5033881;28;20477;-58
2021/09/25 06:41:19;;;;;;;19.10;9.25;;;;;;;;;;5016957;28;20047;-58
2021/09/25 06:43:45;;;;;;;21.17;9.88;;;;;;;;;;5034114;28;20028;-58
2021/09/25 06:46:13;;;;;;;21.77;10.32;;;;;;;;;;5034014;28;20096;-58
2021/09/25 06:48:39;;;;;;;20.85;11.32;;;;;;;;;;5033529;28;20097;-57
2021/09/25 06:51:05;;;;;;;23.35;9.93;;;;;;;;;;5033899;28;20089;-56
2021/09/25 06:53:31;;;;;;;22.85;11.02;;;;;;;;;;5016300;28;20034;-57
2021/09/25 06:55:57;;;;;;;23.70;11.07;;;;;;;;;;5033927;28;20018;-57
2021/09/25 06:58:23;;;;;;;22.50;10.68;;;;;;;;;;5015963;28;20146;-57
2021/09/25 07:00:50;;;;;;;21.67;10.70;;;;;;;;;;5033845;28;20036;-58
2021/09/25 07:03:17;;;;;;;23.38;11.20;;;;;;;;;;5015717;28;20116;-58
2021/09/25 07:05:43;;;;;;;21.83;11.07;;;;;;;;;;5015938;28;20053;-57
2021/09/25 07:08:09;;;;;;;22.23;10.63;;;;;;;;;;5033274;28;20099;-57
2021/09/25 07:10:36;;;;;;;21.70;9.40;;;;;;;;;;5033231;28;20108;-58
2021/09/25 07:13:03;;;;;;;22.00;10.88;;;;;;;;;;5033314;28;20060;-58
2021/09/25 07:15:29;;;;;;;22.17;11.57;;;;;;;;;;5033368;28;20021;-57
2021/09/25 07:17:55;;;;;;;20.85;9.55;;;;;;;;;;5015638;28;20052;-56
2021/09/25 07:20:21;;;;;;;21.48;9.65;;;;;;;;;;5033208;28;20029;-57
2021/09/25 07:22:51;;;;;;;26.15;10.63;;;;;;;;;;5033131;28;20048;-58
2021/09/25 07:25:17;;;;;;;21.73;9.93;;;;;;;;;;5033349;28;20026;-56
2021/09/25 07:27:43;;;;;;;26.98;11.73;;;;;;;;;;5032970;28;20071;-57
2021/09/25 07:30:09;;;;;;;22.15;11.32;;;;;;;;;;5032989;28;20098;-57
2021/09/25 07:32:35;;;;;;;21.90;10.80;;;;;;;;;;5033150;28;20029;-57
2021/09/25 07:35:01;;;;;;;22.92;10.15;;;;;;;;;;5014977;28;20052;-57
2021/09/25 07:37:27;;;;;;;21.75;10.60;;;;;;;;;;5032890;28;20033;-53
2021/09/25 07:39:53;;;;;;;23.88;10.38;;;;;;;;;;5014759;28;20029;-57
2021/09/25 07:42:20;;;;;;;22.33;10.52;;;;;;;;;;5032900;28;20033;-57
2021/09/25 07:44:47;;;;;;;22.73;11.38;;;;;;;;;;5015279;28;20436;-55
2021/09/25 07:47:13;;;;;;;23.40;10.63;;;;;;;;;;5032421;28;20033;-55
2021/09/25 07:49:39;;;;;;;23.88;11.50;;;;;;;;;;5032221;28;20025;-56
2021/09/25 07:52:05;;;;;;;21.65;10.43;;;;;;;;;;5032587;28;20561;-57
2021/09/25 07:54:31;;;;;;;21.40;9.60;;;;;;;;;;5032758;28;20099;-52
2021/09/25 07:56:57;;;;;;;24.60;11.32;;;;;;;;;;5032614;28;20029;-55
2021/09/25 07:59:24;;;;;;;23.25;10.05;;;;;;;;;;5014798;28;20034;-55
2021/09/25 08:01:50;;;;;;;21.55;10.48;;;;;;;;;;5040068;28;20013;-55
2021/09/25 08:04:16;;;;;;;21.70;10.15;;;;;;;;;;5052182;28;20412;-57
2021/09/25 08:06:42;;;;;;;21.80;10.43;;;;;;;;;;5051707;28;20381;-57
2021/09/25 08:09:08;;;;;;;22.95;9.98;;;;;;;;;;5052119;28;20029;-57
2021/09/25 08:11:34;;;;;;;21.42;9.05;;;;;;;;;;5051836;28;20438;-56
2021/09/25 08:14:00;;;;;;;22.25;10.52;;;;;;;;;;5052143;28;20439;-57
2021/09/25 08:16:26;;;;;;;22.23;9.20;;;;;;;;;;5052149;28;20453;-58
2021/09/25 08:18:53;;;;;;;25.85;10.63;;;;;;;;;;5051690;28;20039;-56
2021/09/25 08:21:20;;;;;;;23.20;10.07;;;;;;;;;;5052190;28;20497;-54
2021/09/25 08:23:46;;;;;;;22.63;10.32;;;;;;;;;;5039399;28;20025;-52
2021/09/25 08:26:12;;;;;;;23.20;11.30;;;;;;;;;;5031997;28;20451;-53
2021/09/25 08:28:38;;;;;;;22.83;10.48;;;;;;;;;;5013772;28;20139;-57
2021/09/25 08:31:04;;;;;;;21.63;10.45;;;;;;;;;;5014480;28;20049;-58
2021/09/25 08:33:30;;;;;;;22.35;10.38;;;;;;;;;;5014221;28;20556;-59
2021/09/25 08:35:56;;;;;;;22.27;11.18;;;;;;;;;;5014780;28;20451;-56
2021/09/25 08:38:22;;;;;;;23.38;11.25;;;;;;;;;;5031922;28;20029;-56
2021/09/25 08:40:48;;;;;;;22.33;10.73;;;;;;;;;;5031932;28;20028;-54
2021/09/25 08:43:17;;;;;;;22.50;10.98;;;;;;;;;;5013906;28;20033;-57
2021/09/25 08:45:43;;;;;;;22.92;11.13;;;;;;;;;;5031937;28;20075;-59
2021/09/25 08:48:09;;;;;;;22.02;10.70;;;;;;;;;;5031504;28;20026;-59
2021/09/25 08:50:35;;;;;;;24.38;10.43;;;;;;;;;;5031724;28;20026;-54
2021/09/25 08:53:01;;;;;;;22.08;10.48;;;;;;;;;;5013753;28;20022;-58
2021/09/25 08:55:27;;;;;;;26.48;11.38;;;;;;;;;;5040036;28;20024;-58
2021/09/25 08:57:53;;;;;;;20.98;10.18;;;;;;;;;;5033317;28;20028;-57
2021/09/25 09:00:25;;;;;;;21.48;9.75;;;;;;;;;;5050452;28;20017;-58
2021/09/25 09:02:52;;;;;;;23.90;10.45;;;;;;;;;;5046267;28;20041;-56
2021/09/25 09:05:32;;;;;;;23.50;10.57;;;;;;;;;;5051424;28;20025;-58
2021/09/25 09:08:02;;;;;;;22.52;10.48;;;;;;;;;;5048397;28;20036;-56
2021/09/25 09:10:35;;;;;;;24.38;10.68;;;;;;;;;;5033497;28;20437;-56
2021/09/25 09:13:01;;;;;;;21.35;11.02;;;;;;;;;;5033800;28;20314;-55
2021/09/25 09:15:35;;;;;;;23.02;10.85;;;;;;;;;;5033685;28;20033;-58
2021/09/25 09:18:01;;;;;;;20.33;10.40;;;;;;;;;;5051381;28;20362;-57
2021/09/25 09:20:35;;;;;;;22.45;10.57;;;;;;;;;;5051310;28;20021;-57
2021/09/25 09:23:17;;;;;;;24.13;11.85;;;;;;;;;;5044245;28;20031;-57
2021/09/25 09:25:43;;;;;;;22.27;12.32;;;;;;;;;;5013570;28;20026;-57
2021/09/25 09:28:13;;;;;;;20.80;11.48;;;;;;;;;;5031244;28;20029;-60
2021/09/25 09:30:49;;;;;;;24.30;10.93;;;;;;;;;;5031153;28;20055;-55
2021/09/25 09:33:28;;;;;;;24.75;10.85;;;;;;;;;;5031183;28;20044;-56
2021/09/25 09:35:54;;;;;;;20.83;10.80;;;;;;;;;;5032282;28;20469;-58
2021/09/25 09:38:23;;;;;;;23.92;11.27;;;;;;;;;;5014091;28;20510;-54
2021/09/25 09:40:51;;;;;;;21.85;10.65;;;;;;;;;;5031747;28;20025;-56
2021/09/25 09:43:18;;;;;;;20.17;10.60;;;;;;;;;;5031554;28;20100;-56
2021/09/25 09:45:44;;;;;;;23.88;11.57;;;;;;;;;;5031384;28;20057;-58
2021/09/25 09:48:10;;;;;;;24.65;10.68;;;;;;;;;;5013479;28;20079;-56
2021/09/25 09:50:39;;;;;;;22.48;11.80;;;;;;;;;;5014113;28;20021;-56
2021/09/25 09:53:13;;;;;;;24.13;12.55;;;;;;;;;;5031837;28;20025;-58
2021/09/25 09:55:39;;;;;;;20.60;10.43;;;;;;;;;;5031361;28;20025;-58
2021/09/25 09:58:05;;;;;;;21.48;10.45;;;;;;;;;;5031361;28;20048;-56
2021/09/25 10:00:32;;;;;;;20.98;10.30;;;;;;;;;;5031450;28;20014;-59
2021/09/25 10:02:58;;;;;;;25.15;11.77;;;;;;;;;;4997619;28;20025;-58
2021/09/25 10:05:24;;;;;;;22.23;11.80;;;;;;;;;;4997675;28;20040;-58
2021/09/25 10:07:50;;;;;;;22.10;10.63;;;;;;;;;;5013321;28;20025;-57
2021/09/25 10:10:16;;;;;;;22.38;11.07;;;;;;;;;;5031813;28;20062;-55
2021/09/25 10:12:43;;;;;;;22.15;11.38;;;;;;;;;;5017018;28;20021;-56
2021/09/25 10:15:09;;;;;;;21.77;11.45;;;;;;;;;;5016811;28;20025;-58
2021/09/25 10:17:35;;;;;;;20.42;11.35;;;;;;;;;;5034353;28;20394;-57
2021/09/25 10:20:02;;;;;;;23.05;11.77;;;;;;;;;;5034176;28;20033;-57
2021/09/25 10:22:30;;;;;;;22.50;11.27;;;;;;;;;;5034048;28;20025;-56
2021/09/25 10:24:57;;;;;;;23.67;12.93;;;;;;;;;;5016792;28;20044;-55
2021/09/25 10:27:27;;;;;;;22.63;11.33;;;;;;;;;;5034366;28;20272;-56
2021/09/25 10:29:54;;;;;;;22.25;11.80;;;;;;;;;;5033136;28;20764;-59
2021/09/25 10:32:20;;;;;;;25.60;11.32;;;;;;;;;;5033842;28;20136;-53
2021/09/25 10:35:05;;;;;;;23.00;11.63;;;;;;;;;;5033923;28;20040;-55
2021/09/25 10:37:51;;;;;;;25.30;11.55;;;;;;;;;;5033902;28;20061;-59
2021/09/25 10:40:19;;;;;;;22.00;10.85;;;;;;;;;;5033571;28;20112;-56
2021/09/25 10:42:55;;;;;;;19.48;10.65;;;;;;;;;;5033996;28;20444;-55
2021/09/25 10:45:23;;;;;;;22.35;10.23;;;;;;;;;;5034135;28;20025;-56
2021/09/25 10:48:04;;;;;;;20.77;11.20;;;;;;;;;;5033548;28;20060;-56
2021/09/25 10:50:30;;;;;;;22.67;11.10;;;;;;;;;;4680309;28;10000656;-58
2021/09/25 10:53:33;;;;;;;21.30;11.35;;;;;;;;;;5030827;28;20029;-56
2021/09/25 10:56:02;;;;;;;21.00;9.77;;;;;;;;;;4953209;28;20086;-55
2021/09/25 10:58:30;;;;;;;25.10;10.20;;;;;;;;;;5035348;22;20054;-60
2021/09/25 11:00:58;;;;;;;22.13;10.90;;;;;;;;;;5028501;28;20025;-58
2021/09/25 11:03:48;;;;;;;22.10;10.35;;;;;;;;;;5029547;28;20307;-60
2021/09/25 11:06:14;;;;;;;19.77;10.10;;;;;;;;;;5029969;28;20033;-61
2021/09/25 11:08:49;;;;;;;20.73;10.23;;;;;;;;;;4997112;28;20029;-61
2021/09/25 11:11:16;;;;;;;20.52;11.23;;;;;;;;;;5009372;28;20029;-60
2021/09/25 11:14:01;;;;;;;21.08;10.73;;;;;;;;;;5009488;28;20030;-60
2021/09/25 11:16:42;;;;;;;20.98;10.52;;;;;;;;;;5009577;28;20026;-60
2021/09/25 11:19:12;;;;;;;20.23;10.85;;;;;;;;;;5012103;28;20278;-60
2021/09/25 11:21:38;;;;;;;19.65;10.55;;;;;;;;;;5010464;28;20026;-60
2021/09/25 11:24:04;;;;;;;20.60;12.05;;;;;;;;;;5009538;28;20040;-60
2021/09/25 11:26:35;;;;;;;19.67;10.95;;;;;;;;;;5009423;28;20030;-60
2021/09/25 11:29:10;;;;;;;19.13;10.82;;;;;;;;;;4990903;28;20033;-60
2021/09/25 11:31:37;;;;;;;17.83;12.18;;;;;;;;;;4989907;28;20030;-63
2021/09/25 11:34:04;;;;;;;18.85;11.32;;;;;;;;;;5009327;28;20034;-59
2021/09/25 11:36:31;;;;;;;20.67;11.05;;;;;;;;;;4991203;28;20144;-57
2021/09/25 11:38:57;;;;;;;18.55;11.57;;;;;;;;;;4991153;28;20092;-57
2021/09/25 11:41:23;;;;;;;19.70;12.23;;;;;;;;;;5008467;28;20044;-59
2021/09/25 11:43:56;;;;;;;20.90;12.55;;;;;;;;;;5009251;28;20022;-59
2021/09/25 11:46:25;;;;;;;18.83;12.13;;;;;;;;;;5008893;28;20425;-59
2021/09/25 11:48:57;;;;;;;17.80;11.70;;;;;;;;;;5008878;28;20034;-60
2021/09/25 11:51:24;;;;;;;16.95;11.32;;;;;;;;;;4991798;28;20040;-57
2021/09/25 11:53:53;;;;;;;18.08;11.30;;;;;;;;;;4991486;28;20077;-59
2021/09/25 11:56:29;;;;;;;19.67;11.57;;;;;;;;;;5008993;28;20509;-59
2021/09/25 11:58:58;;;;;;;19.92;12.05;;;;;;;;;;5008499;28;20053;-59
2021/09/25 12:01:24;;;;;;;19.75;11.13;;;;;;;;;;4990957;28;20573;-59
2021/09/25 12:03:50;;;;;;;21.58;11.75;;;;;;;;;;5008690;28;20048;-59
2021/09/25 12:06:16;;;;;;;18.75;10.95;;;;;;;;;;5008961;28;20034;-58
2021/09/25 12:08:42;;;;;;;17.35;10.68;;;;;;;;;;4991178;28;20198;-58
2021/09/25 12:11:09;;;;;;;20.50;11.52;;;;;;;;;;5014353;28;20680;-59
2021/09/25 12:13:35;;;;;;;21.48;12.32;;;;;;;;;;5010002;28;20076;-60
2021/09/25 12:16:03;;;;;;;18.35;11.82;;;;;;;;;;5027493;28;20120;-59
2021/09/25 12:18:33;;;;;;;18.58;11.88;;;;;;;;;;5028565;28;20060;-60
2021/09/25 12:21:04;;;;;;;21.13;11.98;;;;;;;;;;5030731;28;20018;-57
2021/09/25 12:23:33;;;;;;;18.85;11.48;;;;;;;;;;5019891;28;20085;-58
2021/09/25 12:25:59;;;;;;;17.67;11.05;;;;;;;;;;4647580;28;10000045;-59
2021/09/25 12:28:25;;;;;;;18.05;11.30;;;;;;;;;;5008057;28;20064;-58
2021/09/25 12:30:52;;;;;;;18.88;11.43;;;;;;;;;;4990319;28;20065;-57
2021/09/25 12:33:18;;;;;;;17.73;11.10;;;;;;;;;;4989994;28;20053;-59
2021/09/25 12:35:56;;;;;;;17.63;10.70;;;;;;;;;;5008002;28;20026;-59
2021/09/25 12:38:22;;;;;;;17.13;10.70;;;;;;;;;;4990648;28;20022;-60
2021/09/25 12:40:49;;;;;;;17.83;11.38;;;;;;;;;;5010810;28;20470;-59
2021/09/25 12:43:23;;;;;;;18.02;11.35;;;;;;;;;;5010934;28;20363;-59
2021/09/25 12:46:03;;;;;;;18.17;9.80;;;;;;;;;;4993231;28;20032;-60
2021/09/25 12:48:29;;;;;;;19.17;9.82;;;;;;;;;;5010594;28;20514;-59
2021/09/25 12:50:55;;;;;;;17.88;10.13;;;;;;;;;;5010893;28;20029;-59
2021/09/25 12:53:21;;;;;;;18.17;10.57;;;;;;;;;;4992838;28;20029;-59
2021/09/25 12:55:47;;;;;;;16.48;9.93;;;;;;;;;;5010532;28;20152;-59
2021/09/25 12:58:16;;;;;;;19.17;10.43;;;;;;;;;;5010320;28;20034;-62
2021/09/25 13:00:44;;;;;;;16.95;9.55;;;;;;;;;;4993061;28;20022;-59
2021/09/25 13:03:12;;;;;;;19.50;10.97;;;;;;;;;;5008589;28;20021;-58
2021/09/25 13:05:46;;;;;;;18.85;10.72;;;;;;;;;;4892960;28;10000612;-60
2021/09/25 13:08:14;;;;;;;18.80;11.13;;;;;;;;;;4987658;28;20227;-59
2021/09/25 13:10:50;;;;;;;17.65;10.82;;;;;;;;;;4970559;28;20054;-58
2021/09/25 13:13:22;;;;;;;22.48;10.75;;;;;;;;;;4988058;28;20035;-60
2021/09/25 13:15:48;;;;;;;19.52;10.80;;;;;;;;;;4988037;28;20430;-60
2021/09/25 13:18:14;;;;;;;17.42;10.15;;;;;;;;;;4989598;28;20038;-59
2021/09/25 13:20:40;;;;;;;17.25;10.63;;;;;;;;;;4990738;28;20080;-58
2021/09/25 13:23:17;;;;;;;17.75;10.50;;;;;;;;;;4998176;28;20026;-60
2021/09/25 13:25:43;;;;;;;18.52;10.50;;;;;;;;;;5010555;28;20025;-58
2021/09/25 13:28:10;;;;;;;18.13;10.18;;;;;;;;;;5010189;28;20030;-55
2021/09/25 13:30:36;;;;;;;21.88;11.35;;;;;;;;;;4992850;28;20030;-60
2021/09/25 13:33:02;;;;;;;16.50;9.93;;;;;;;;;;5010841;28;20026;-60
2021/09/25 13:35:28;;;;;;;17.35;10.00;;;;;;;;;;5010211;28;20026;-61
2021/09/25 13:37:54;;;;;;;16.10;10.05;;;;;;;;;;4993081;28;20094;-59
2021/09/25 13:40:20;;;;;;;18.25;10.82;;;;;;;;;;5010414;28;20026;-61
2021/09/25 13:42:46;;;;;;;19.50;10.48;;;;;;;;;;4993021;28;20116;-60
2021/09/25 13:45:17;;;;;;;16.92;10.25;;;;;;;;;;5011740;28;20033;-57
2021/09/25 13:47:43;;;;;;;16.50;10.00;;;;;;;;;;5013695;28;20351;-57
2021/09/25 13:50:10;;;;;;;17.90;10.50;;;;;;;;;;5014006;28;20037;-58
2021/09/25 13:52:35;;;;;;;16.67;9.90;;;;;;;;;;4996638;28;20509;-56
2021/09/25 13:55:02;;;;;;;19.23;10.98;;;;;;;;;;5014041;28;20109;-57
2021/09/25 13:57:28;;;;;;;18.70;10.77;;;;;;;;;;5013693;28;20029;-58
2021/09/25 13:59:54;;;;;;;17.08;10.23;;;;;;;;;;4995714;28;20026;-59
2021/09/25 14:02:20;;;;;;;19.27;10.85;;;;;;;;;;5013775;28;20427;-58
2021/09/25 14:04:46;;;;;;;18.13;9.70;;;;;;;;;;4996250;28;20061;-58
2021/09/25 14:07:12;;;;;;;17.90;10.00;;;;;;;;;;5013547;28;20490;-61
2021/09/25 14:09:38;;;;;;;19.88;9.88;;;;;;;;;;4995959;28;20030;-59
2021/09/25 14:12:05;;;;;;;18.02;10.65;;;;;;;;;;5013999;28;20033;-58
2021/09/25 14:14:31;;;;;;;18.20;10.30;;;;;;;;;;5013615;28;20097;-60
2021/09/25 14:16:57;;;;;;;19.13;10.40;;;;;;;;;;4995662;28;20588;-58
2021/09/25 14:19:23;;;;;;;17.17;10.00;;;;;;;;;;5013266;28;20042;-60
2021/09/25 14:21:51;;;;;;;17.08;9.85;;;;;;;;;;5013696;28;20121;-60